createdAt,value
2023-08-02T00:02:04.176Z,27.69
2023-08-02T00:04:30.858Z,27.67
2023-08-02T00:06:57.470Z,27.65
2023-08-02T00:09:24.085Z,27.67
2023-08-02T00:11:50.694Z,27.68
2023-08-02T00:14:17.308Z,27.68
2023-08-02T00:16:44.216Z,27.67
2023-08-02T00:19:11.096Z,27.68
2023-08-02T00:21:37.700Z,27.68
2023-08-02T00:24:04.305Z,27.67
2023-08-02T00:26:30.932Z,27.68
2023-08-02T00:28:57.536Z,27.70
2023-08-02T00:31:24.220Z,27.71
2023-08-02T00:33:50.887Z,27.72
2023-08-02T00:36:17.526Z,27.75
2023-08-02T00:38:44.129Z,27.72
2023-08-02T00:41:10.743Z,27.73
2023-08-02T00:43:37.336Z,27.74
2023-08-02T00:46:04.130Z,27.74
2023-08-02T00:48:31.107Z,27.73
2023-08-02T00:50:57.871Z,27.71
2023-08-02T00:53:24.502Z,27.68
2023-08-02T00:55:51.090Z,27.67
2023-08-02T00:58:17.709Z,27.64
2023-08-02T01:00:44.312Z,27.64
2023-08-02T01:03:11.555Z,27.63
2023-08-02T01:05:38.312Z,27.64
2023-08-02T01:08:04.969Z,27.65
2023-08-02T01:10:31.569Z,27.62
2023-08-02T01:12:58.170Z,27.61
2023-08-02T01:15:24.788Z,27.60
2023-08-02T01:17:51.434Z,27.60
2023-08-02T01:20:18.049Z,27.59
2023-08-02T01:22:44.687Z,27.60
2023-08-02T01:25:11.302Z,27.62
2023-08-02T01:27:37.914Z,27.64
2023-08-02T01:30:04.512Z,27.67
2023-08-02T01:32:31.143Z,27.66
2023-08-02T01:34:57.824Z,27.68
2023-08-02T01:37:24.436Z,27.69
2023-08-02T01:39:51.079Z,27.69
2023-08-02T01:42:17.750Z,27.66
2023-08-02T01:44:44.463Z,27.65
2023-08-02T01:47:11.088Z,27.62
2023-08-02T01:49:37.711Z,27.62
2023-08-02T01:52:04.371Z,27.61
2023-08-02T01:54:31.002Z,27.61
2023-08-02T01:56:57.614Z,27.59
2023-08-02T01:59:24.346Z,27.62
2023-08-02T02:01:50.984Z,27.57
2023-08-02T02:04:17.590Z,27.56
2023-08-02T02:06:44.463Z,27.56
2023-08-02T02:09:11.389Z,27.55
2023-08-02T02:11:37.985Z,27.56
2023-08-02T02:14:04.611Z,27.56
2023-08-02T02:16:31.225Z,27.55
2023-08-02T02:18:57.874Z,27.57
2023-08-02T02:21:24.493Z,27.58
2023-08-02T02:23:51.117Z,27.59
2023-08-02T02:26:17.732Z,27.61
2023-08-02T02:28:44.327Z,27.62
2023-08-02T02:31:10.931Z,27.62
2023-08-02T02:33:37.558Z,27.64
2023-08-02T02:36:04.163Z,27.63
2023-08-02T02:38:30.767Z,27.61
2023-08-02T02:40:57.379Z,27.62
2023-08-02T02:43:23.980Z,27.61
2023-08-02T02:45:50.600Z,27.62
2023-08-02T02:48:17.209Z,27.59
2023-08-02T02:50:43.824Z,27.56
2023-08-02T02:53:10.422Z,27.57
2023-08-02T02:55:37.047Z,27.58
2023-08-02T02:58:03.661Z,27.55
2023-08-02T03:00:30.257Z,27.52
2023-08-02T03:02:56.928Z,27.53
2023-08-02T03:05:23.559Z,27.52
2023-08-02T03:07:50.169Z,27.52
2023-08-02T03:10:16.779Z,27.49
2023-08-02T03:12:43.365Z,27.48
2023-08-02T03:15:09.979Z,27.46
2023-08-02T03:17:36.573Z,27.45
2023-08-02T03:20:03.177Z,27.53
2023-08-02T03:22:29.779Z,27.56
2023-08-02T03:24:56.408Z,27.57
2023-08-02T03:27:23.012Z,27.60
2023-08-02T03:29:49.634Z,27.59
2023-08-02T03:32:16.246Z,27.60
2023-08-02T03:34:42.870Z,27.57
2023-08-02T03:37:09.498Z,27.57
2023-08-02T03:39:36.100Z,27.55
2023-08-02T03:42:02.686Z,27.55
2023-08-02T03:44:29.295Z,27.54
2023-08-02T03:46:55.901Z,27.53
2023-08-02T03:49:22.498Z,27.54
2023-08-02T03:51:49.118Z,27.53
2023-08-02T03:54:15.712Z,27.52
2023-08-02T03:56:42.652Z,27.51
2023-08-02T03:59:09.468Z,27.51
2023-08-02T04:01:36.093Z,27.50
2023-08-02T04:04:02.761Z,27.50
2023-08-02T04:06:29.419Z,27.48
2023-08-02T04:08:56.071Z,27.47
2023-08-02T04:11:22.661Z,27.47
2023-08-02T04:13:49.278Z,27.45
2023-08-02T04:16:15.933Z,27.45
2023-08-02T04:18:42.553Z,27.47
2023-08-02T04:21:09.155Z,27.51
2023-08-02T04:23:35.757Z,27.53
2023-08-02T04:26:02.383Z,27.56
2023-08-02T04:28:29.001Z,27.56
2023-08-02T04:30:55.626Z,27.55
2023-08-02T04:33:22.296Z,27.56
2023-08-02T04:35:48.950Z,27.57
2023-08-02T04:38:15.556Z,27.56
2023-08-02T04:40:42.178Z,27.53
2023-08-02T04:43:08.760Z,27.52
2023-08-02T04:45:35.383Z,27.52
2023-08-02T04:48:02.030Z,27.51
2023-08-02T04:50:28.742Z,27.48
2023-08-02T04:52:55.348Z,27.48
2023-08-02T04:55:21.932Z,27.48
2023-08-02T04:57:48.588Z,27.46
2023-08-02T05:00:15.224Z,27.47
2023-08-02T05:02:41.914Z,27.47
2023-08-02T05:05:08.542Z,27.45
2023-08-02T05:07:35.536Z,27.45
2023-08-02T05:10:02.997Z,27.47
2023-08-02T05:12:29.617Z,27.44
2023-08-02T05:14:56.212Z,27.45
2023-08-02T05:17:22.832Z,27.45
2023-08-02T05:19:49.469Z,27.43
2023-08-02T05:22:16.074Z,27.42
2023-08-02T05:24:42.681Z,27.43
2023-08-02T05:27:09.273Z,27.44
2023-08-02T05:29:35.886Z,27.48
2023-08-02T05:32:02.562Z,27.51
2023-08-02T05:34:29.183Z,27.54
2023-08-02T05:36:55.772Z,27.56
2023-08-02T05:39:22.377Z,27.67
2023-08-02T05:41:48.995Z,27.86
2023-08-02T05:44:15.613Z,27.99
2023-08-02T05:46:42.225Z,28.00
2023-08-02T05:49:08.832Z,28.04
2023-08-02T05:51:35.429Z,28.01
2023-08-02T05:54:02.017Z,28.01
2023-08-02T05:56:28.671Z,27.90
2023-08-02T05:58:55.279Z,27.82
2023-08-02T06:01:21.934Z,27.63
2023-08-02T06:03:48.657Z,27.43
2023-08-02T06:06:15.343Z,27.38
2023-08-02T06:08:41.974Z,27.43
2023-08-02T06:11:08.586Z,27.41
2023-08-02T06:13:35.195Z,27.44
2023-08-02T06:16:01.815Z,27.42
2023-08-02T06:18:28.499Z,27.44
2023-08-02T06:20:55.096Z,27.46
2023-08-02T06:23:21.698Z,27.49
2023-08-02T06:25:48.296Z,27.54
2023-08-02T06:28:14.902Z,27.57
2023-08-02T06:30:41.534Z,27.63
2023-08-02T06:33:08.186Z,27.60
2023-08-02T06:35:34.982Z,27.60
2023-08-02T06:38:01.689Z,27.62
2023-08-02T06:40:28.333Z,27.63
2023-08-02T06:42:54.966Z,27.60
2023-08-02T06:45:21.588Z,27.57
2023-08-02T06:47:48.239Z,27.55
2023-08-02T06:50:14.872Z,27.54
2023-08-02T06:52:41.479Z,27.53
2023-08-02T06:55:08.085Z,27.56
2023-08-02T06:57:34.694Z,27.50
2023-08-02T07:00:01.315Z,27.51
2023-08-02T07:02:27.981Z,27.54
2023-08-02T07:04:54.709Z,27.56
2023-08-02T07:07:21.397Z,27.55
2023-08-02T07:09:47.992Z,27.56
2023-08-02T07:12:14.642Z,27.52
2023-08-02T07:14:41.257Z,27.51
2023-08-02T07:17:07.850Z,27.51
2023-08-02T07:19:34.449Z,27.54
2023-08-02T07:22:01.043Z,27.60
2023-08-02T07:24:27.667Z,27.59
2023-08-02T07:26:54.281Z,27.64
2023-08-02T07:29:20.931Z,27.63
2023-08-02T07:31:47.624Z,27.60
2023-08-02T07:34:14.243Z,27.62
2023-08-02T07:36:40.841Z,27.68
2023-08-02T07:39:07.496Z,27.66
2023-08-02T07:41:34.132Z,27.66
2023-08-02T07:44:00.754Z,27.59
2023-08-02T07:46:27.428Z,27.54
2023-08-02T07:48:54.092Z,27.58
2023-08-02T07:51:20.742Z,27.60
2023-08-02T07:53:47.404Z,27.60
2023-08-02T07:56:14.039Z,27.59
2023-08-02T07:58:40.663Z,27.58
2023-08-02T08:01:07.267Z,27.59
2023-08-02T08:03:33.875Z,27.61
2023-08-02T08:06:00.513Z,27.60
2023-08-02T08:08:27.142Z,27.55
2023-08-02T08:10:53.753Z,27.57
2023-08-02T08:13:20.392Z,27.62
2023-08-02T08:15:46.971Z,27.68
2023-08-02T08:18:13.600Z,27.69
2023-08-02T08:20:40.224Z,27.75
2023-08-02T08:23:06.837Z,27.76
2023-08-02T08:25:33.439Z,27.75
2023-08-02T08:28:00.049Z,27.82
2023-08-02T08:30:26.669Z,27.81
2023-08-02T08:32:53.305Z,27.78
2023-08-02T08:35:19.936Z,27.74
2023-08-02T08:37:46.574Z,27.75
2023-08-02T08:40:18.992Z,27.76
2023-08-02T08:42:45.609Z,27.71
2023-08-02T08:45:12.513Z,27.67
2023-08-02T08:47:39.179Z,27.65
2023-08-02T08:50:05.874Z,27.65
2023-08-02T08:52:32.486Z,27.61
2023-08-02T08:54:59.100Z,27.61
2023-08-02T08:57:25.755Z,27.61
2023-08-02T08:59:52.381Z,27.61
2023-08-02T09:02:19.000Z,27.62
2023-08-02T09:04:45.618Z,27.66
2023-08-02T09:07:12.238Z,27.66
2023-08-02T09:09:38.837Z,27.72
2023-08-02T09:12:05.445Z,27.76
2023-08-02T09:14:32.057Z,27.81
2023-08-02T09:16:58.656Z,27.85
2023-08-02T09:19:25.552Z,27.85
2023-08-02T09:21:52.158Z,27.91
2023-08-02T09:24:18.780Z,27.92
2023-08-02T09:26:45.429Z,27.99
2023-08-02T09:29:12.027Z,28.03
2023-08-02T09:31:38.723Z,28.03
2023-08-02T09:34:05.432Z,27.98
2023-08-02T09:36:32.116Z,28.09
2023-08-02T09:38:58.716Z,28.07
2023-08-02T09:43:54.871Z,28.10
2023-08-02T09:46:21.523Z,28.10
2023-08-02T09:48:48.133Z,28.09
2023-08-02T09:51:14.736Z,28.09
2023-08-02T09:53:41.330Z,28.09
2023-08-02T09:56:07.935Z,28.07
2023-08-02T09:58:34.571Z,28.07
2023-08-02T10:01:01.185Z,28.13
2023-08-02T10:03:28.172Z,28.15
2023-08-02T10:05:54.881Z,28.03
2023-08-02T10:08:21.495Z,28.02
2023-08-02T10:10:48.100Z,28.02
2023-08-02T10:13:14.720Z,28.06
2023-08-02T10:15:41.414Z,28.09
2023-08-02T10:18:08.075Z,28.09
2023-08-02T10:20:34.731Z,28.11
2023-08-02T10:23:01.328Z,28.13
2023-08-02T10:25:27.956Z,28.13
2023-08-02T10:27:54.582Z,28.14
2023-08-02T10:30:21.192Z,28.17
2023-08-02T10:32:47.855Z,28.17
2023-08-02T10:35:14.503Z,28.17
2023-08-02T10:37:41.114Z,28.17
2023-08-02T10:40:07.726Z,28.19
2023-08-02T10:42:34.310Z,28.18
2023-08-02T10:45:00.921Z,28.15
2023-08-02T10:47:27.510Z,28.15
2023-08-02T10:49:54.124Z,28.12
2023-08-02T10:52:20.730Z,28.09
2023-08-02T10:54:47.329Z,28.08
2023-08-02T10:57:13.946Z,28.09
2023-08-02T10:59:40.536Z,28.14
2023-08-02T11:02:07.129Z,28.18
2023-08-02T11:04:33.850Z,28.21
2023-08-02T11:07:00.516Z,28.28
2023-08-02T11:09:27.170Z,28.35
2023-08-02T11:11:53.785Z,28.39
2023-08-02T11:14:20.405Z,28.41
2023-08-02T11:19:16.662Z,28.36
2023-08-02T11:21:43.373Z,28.32
2023-08-02T11:24:09.960Z,28.33
2023-08-02T11:29:06.080Z,28.34
2023-08-02T11:31:32.685Z,28.30
2023-08-02T11:33:59.292Z,28.35
2023-08-02T11:36:25.902Z,28.41
2023-08-02T11:38:52.570Z,28.48
2023-08-02T11:41:19.191Z,28.50
2023-08-02T11:43:45.849Z,28.50
2023-08-02T11:46:12.570Z,28.52
2023-08-02T11:48:39.217Z,28.53
2023-08-02T11:51:05.833Z,28.51
2023-08-02T11:53:32.505Z,28.64
2023-08-02T11:55:59.212Z,28.69
2023-08-02T11:58:25.880Z,28.69
2023-08-02T12:00:52.485Z,28.73
2023-08-02T12:03:19.096Z,28.81
2023-08-02T12:05:45.834Z,28.77
2023-08-02T12:08:12.532Z,28.78
2023-08-02T12:10:39.139Z,28.80
2023-08-02T12:13:05.736Z,28.79
2023-08-02T12:15:32.320Z,28.73
2023-08-02T12:17:58.943Z,28.64
2023-08-02T12:20:25.546Z,28.78
2023-08-02T12:22:52.144Z,28.80
2023-08-02T12:25:18.757Z,28.48
2023-08-02T12:27:45.357Z,28.31
2023-08-02T12:30:12.022Z,28.34
2023-08-02T12:32:38.670Z,28.27
2023-08-02T12:35:11.961Z,28.17
2023-08-02T12:37:39.574Z,28.13
2023-08-02T12:40:06.262Z,28.22
2023-08-02T12:42:34.253Z,28.20
2023-08-02T12:45:15.216Z,28.19
2023-08-02T12:47:44.253Z,28.25
2023-08-02T12:50:10.950Z,28.23
2023-08-02T12:52:37.605Z,28.28
2023-08-02T12:55:04.213Z,28.30
2023-08-02T12:57:30.819Z,28.30
2023-08-02T12:59:57.414Z,28.33
2023-08-02T13:02:24.004Z,28.36
2023-08-02T13:04:50.597Z,28.35
2023-08-02T13:07:18.638Z,28.35
2023-08-02T13:09:45.526Z,28.37
2023-08-02T13:12:13.990Z,28.22
2023-08-02T13:14:42.618Z,28.19
2023-08-02T13:17:09.232Z,28.22
2023-08-02T13:19:35.844Z,28.19
2023-08-02T13:22:02.484Z,28.21
2023-08-02T13:24:29.109Z,28.26
2023-08-02T13:26:55.707Z,28.33
2023-08-02T13:29:23.315Z,28.52
2023-08-02T13:31:50.168Z,28.66
2023-08-02T13:34:16.808Z,28.71
2023-08-02T13:36:44.235Z,28.81
2023-08-02T13:39:11.194Z,28.92
2023-08-02T13:41:40.580Z,28.97
2023-08-02T13:44:07.186Z,28.95
2023-08-02T13:46:33.817Z,28.95
2023-08-02T13:49:00.428Z,28.98
2023-08-02T13:51:27.069Z,29.07
2023-08-02T13:53:54.645Z,29.13
2023-08-02T13:56:21.405Z,29.05
2023-08-02T13:58:48.062Z,28.92
2023-08-02T14:01:14.690Z,29.09
2023-08-02T14:03:41.324Z,29.18
2023-08-02T14:06:07.997Z,29.03
2023-08-02T14:08:34.681Z,28.88
2023-08-02T14:11:01.277Z,28.84
2023-08-02T14:13:27.874Z,28.80
2023-08-02T14:15:54.545Z,28.79
2023-08-02T14:18:21.182Z,28.87
2023-08-02T14:20:47.849Z,28.89
2023-08-02T14:23:14.551Z,28.88
2023-08-02T14:25:41.177Z,28.75
2023-08-02T14:28:07.796Z,28.75
2023-08-02T14:30:34.404Z,28.89
2023-08-02T14:33:01.038Z,28.93
2023-08-02T14:35:27.679Z,28.79
2023-08-02T14:37:54.287Z,28.82
2023-08-02T14:40:20.885Z,28.86
2023-08-02T14:42:47.525Z,28.88
2023-08-02T14:45:14.157Z,28.87
2023-08-02T14:47:40.791Z,28.84
2023-08-02T14:50:07.420Z,28.82
2023-08-02T14:52:34.021Z,28.79
2023-08-02T14:55:00.656Z,28.76
2023-08-02T14:57:27.263Z,28.80
2023-08-02T14:59:53.851Z,28.79
2023-08-02T15:02:20.486Z,28.84
2023-08-02T15:04:47.168Z,28.91
2023-08-02T15:07:13.820Z,28.92
2023-08-02T15:09:40.440Z,28.81
2023-08-02T15:12:07.058Z,28.86
2023-08-02T15:14:33.674Z,28.85
2023-08-02T15:17:00.385Z,28.92
2023-08-02T15:19:27.137Z,29.03
2023-08-02T15:21:53.740Z,29.09
2023-08-02T15:24:20.354Z,29.04
2023-08-02T15:26:46.952Z,28.93
2023-08-02T15:29:13.555Z,28.93
2023-08-02T15:31:40.178Z,28.88
2023-08-02T15:34:08.278Z,28.88
2023-08-02T15:36:36.025Z,28.81
2023-08-02T15:39:02.626Z,28.89
2023-08-02T15:41:29.236Z,28.96
2023-08-02T15:43:55.834Z,28.91
2023-08-02T15:46:22.570Z,28.90
2023-08-02T15:48:49.220Z,28.93
2023-08-02T15:51:15.826Z,28.97
2023-08-02T15:53:42.414Z,28.92
2023-08-02T15:56:09.001Z,28.89
2023-08-02T15:58:35.661Z,28.88
2023-08-02T16:01:02.346Z,28.92
2023-08-02T16:03:28.977Z,28.96
2023-08-02T16:05:55.585Z,29.00
2023-08-02T16:08:22.195Z,29.04
2023-08-02T16:10:48.784Z,29.06
2023-08-02T16:13:15.386Z,29.12
2023-08-02T16:15:41.988Z,29.15
2023-08-02T16:18:08.640Z,29.13
2023-08-02T16:20:35.300Z,29.06
2023-08-02T16:23:01.895Z,28.96
2023-08-02T16:25:28.493Z,28.93
2023-08-02T16:27:55.119Z,28.84
2023-08-02T16:30:21.735Z,28.88
2023-08-02T16:32:48.435Z,28.85
2023-08-02T16:35:15.063Z,28.83
2023-08-02T16:37:41.660Z,28.87
2023-08-02T16:40:08.285Z,28.87
2023-08-02T16:42:34.945Z,28.88
2023-08-02T16:45:01.556Z,28.86
2023-08-02T16:47:28.209Z,28.86
2023-08-02T16:49:54.846Z,28.92
2023-08-02T16:52:24.037Z,28.89
2023-08-02T16:54:50.835Z,28.93
2023-08-02T16:57:17.446Z,28.90
2023-08-02T16:59:44.051Z,28.87
2023-08-02T17:02:10.719Z,28.89
2023-08-02T17:04:37.386Z,28.87
2023-08-02T17:07:04.019Z,28.89
2023-08-02T17:09:30.660Z,28.90
2023-08-02T17:11:57.278Z,28.89
2023-08-02T17:14:23.896Z,28.90
2023-08-02T17:16:50.504Z,28.92
2023-08-02T17:19:17.126Z,28.97
2023-08-02T17:21:46.523Z,28.97
2023-08-02T17:24:14.471Z,29.01
2023-08-02T17:26:41.075Z,29.05
2023-08-02T17:29:07.706Z,29.06
2023-08-02T17:31:34.317Z,29.07
2023-08-02T17:34:01.004Z,29.12
2023-08-02T17:36:27.660Z,29.11
2023-08-02T17:38:54.260Z,29.24
2023-08-02T17:41:20.851Z,29.22
2023-08-02T17:43:47.459Z,29.21
2023-08-02T17:46:14.084Z,29.30
2023-08-02T17:48:42.862Z,29.27
2023-08-02T17:51:09.555Z,29.25
2023-08-02T17:53:36.153Z,29.22
2023-08-02T17:56:02.746Z,29.40
2023-08-02T17:58:29.339Z,29.58
2023-08-02T18:00:55.971Z,29.76
2023-08-02T18:03:22.577Z,29.79
2023-08-02T18:05:49.198Z,29.83
2023-08-02T18:08:15.889Z,29.87
2023-08-02T18:10:42.540Z,29.87
2023-08-02T18:13:09.146Z,29.86
2023-08-02T18:15:35.744Z,29.66
2023-08-02T18:18:02.482Z,29.60
2023-08-02T18:20:29.158Z,29.52
2023-08-02T18:22:55.938Z,29.47
2023-08-02T18:25:23.157Z,29.49
2023-08-02T18:27:49.753Z,29.75
2023-08-02T18:30:16.363Z,29.73
2023-08-02T18:32:43.060Z,29.80
2023-08-02T18:35:09.680Z,29.83
2023-08-02T18:37:36.317Z,29.86
2023-08-02T18:40:02.924Z,29.89
2023-08-02T18:42:29.518Z,29.89
2023-08-02T18:44:56.121Z,29.87
2023-08-02T18:47:22.746Z,29.86
2023-08-02T18:49:49.395Z,29.85
2023-08-02T18:52:16.003Z,29.82
2023-08-02T18:54:42.595Z,29.77
2023-08-02T18:57:09.219Z,29.57
2023-08-02T18:59:35.850Z,29.53
2023-08-02T19:02:02.464Z,29.51
2023-08-02T19:04:29.128Z,29.46
2023-08-02T19:06:55.735Z,29.45
2023-08-02T19:09:22.328Z,29.45
2023-08-02T19:11:48.936Z,29.45
2023-08-02T19:14:15.518Z,29.47
2023-08-02T19:16:42.142Z,29.54
2023-08-02T19:19:08.793Z,29.55
2023-08-02T19:21:35.412Z,29.59
2023-08-02T19:24:02.004Z,29.63
2023-08-02T19:26:28.616Z,29.63
2023-08-02T19:28:55.245Z,29.61
2023-08-02T19:31:21.940Z,29.58
2023-08-02T19:33:48.621Z,29.56
2023-08-02T19:36:15.215Z,29.46
2023-08-02T19:38:41.810Z,29.51
2023-08-02T19:41:08.416Z,29.48
2023-08-02T19:43:35.007Z,29.44
2023-08-02T19:46:01.619Z,29.44
2023-08-02T19:48:28.211Z,29.43
2023-08-02T19:50:54.797Z,29.39
2023-08-02T19:53:21.412Z,29.41
2023-08-02T19:55:48.006Z,29.40
2023-08-02T19:58:14.624Z,29.38
2023-08-02T20:00:41.261Z,29.37
2023-08-02T20:03:07.903Z,29.38
2023-08-02T20:05:34.517Z,29.39
2023-08-02T20:08:01.114Z,29.41
2023-08-02T20:10:27.732Z,29.40
2023-08-02T20:12:54.327Z,29.39
2023-08-02T20:15:20.921Z,29.41
2023-08-02T20:17:47.670Z,29.39
2023-08-02T20:20:14.357Z,29.41
2023-08-02T20:22:42.364Z,29.41
2023-08-02T20:25:10.287Z,29.42
2023-08-02T20:27:36.876Z,29.39
2023-08-02T20:30:03.519Z,29.40
2023-08-02T20:32:30.187Z,29.37
2023-08-02T20:34:56.836Z,29.38
2023-08-02T20:37:23.464Z,29.37
2023-08-02T20:39:50.081Z,29.37
2023-08-02T20:42:16.686Z,29.34
2023-08-02T20:44:43.278Z,29.30
2023-08-02T20:47:09.885Z,29.30
2023-08-02T20:49:36.484Z,29.30
2023-08-02T20:52:03.081Z,29.22
2023-08-02T20:54:29.667Z,29.19
2023-08-02T20:56:56.257Z,29.11
2023-08-02T20:59:22.856Z,29.07
2023-08-02T21:01:49.484Z,29.01
2023-08-02T21:04:16.114Z,28.95
2023-08-02T21:06:44.846Z,28.91
2023-08-02T21:09:13.079Z,28.92
2023-08-02T21:11:39.711Z,28.91
2023-08-02T21:14:06.331Z,28.92
2023-08-02T21:16:33.027Z,28.93
2023-08-02T21:18:59.647Z,28.92
2023-08-02T21:21:26.234Z,28.92
2023-08-02T21:23:52.847Z,28.90
2023-08-02T21:26:19.443Z,28.91
2023-08-02T21:28:46.025Z,28.88
2023-08-02T21:31:12.740Z,28.87
2023-08-02T21:33:39.487Z,28.87
2023-08-02T21:36:06.089Z,28.86
2023-08-02T21:38:32.730Z,28.85
2023-08-02T21:40:59.336Z,28.84
2023-08-02T21:43:25.944Z,28.81
2023-08-02T21:45:52.593Z,28.79
2023-08-02T21:48:19.209Z,28.78
2023-08-02T21:50:45.855Z,28.79
2023-08-02T21:53:12.458Z,28.75
2023-08-02T21:55:39.063Z,28.75
2023-08-02T21:58:05.663Z,28.72
2023-08-02T22:00:32.269Z,28.73
2023-08-02T22:02:58.882Z,28.72
2023-08-02T22:05:25.517Z,28.71
2023-08-02T22:07:52.106Z,28.69
2023-08-02T22:10:18.751Z,28.69
2023-08-02T22:12:45.361Z,28.69
2023-08-02T22:15:11.964Z,28.70
2023-08-02T22:17:38.615Z,28.73
2023-08-02T22:20:05.230Z,28.73
2023-08-02T22:22:31.863Z,28.73
2023-08-02T22:24:58.459Z,28.72
2023-08-02T22:27:25.065Z,28.68
2023-08-02T22:29:58.993Z,28.68
2023-08-02T22:32:26.423Z,28.66
2023-08-02T22:34:53.015Z,28.67
2023-08-02T22:37:19.607Z,28.66
2023-08-02T22:39:46.201Z,28.64
2023-08-02T22:42:12.808Z,28.62
2023-08-02T22:44:39.425Z,28.63
2023-08-02T22:47:06.038Z,28.60
2023-08-02T22:52:02.169Z,28.59
2023-08-02T22:54:28.784Z,28.57
2023-08-02T22:56:55.381Z,28.56
2023-08-02T22:59:21.968Z,28.56
2023-08-02T23:01:48.568Z,28.56
2023-08-02T23:04:15.298Z,28.55
2023-08-02T23:06:42.066Z,28.54
2023-08-02T23:09:08.700Z,28.52
2023-08-02T23:11:35.283Z,28.51
2023-08-02T23:14:01.889Z,28.54
2023-08-02T23:16:28.548Z,28.54
2023-08-02T23:18:55.158Z,28.54
2023-08-02T23:21:21.762Z,28.54
2023-08-02T23:23:48.355Z,28.54
2023-08-02T23:26:14.953Z,28.53
2023-08-02T23:28:41.548Z,28.54
2023-08-02T23:31:08.183Z,28.53
2023-08-02T23:33:35.014Z,28.53
2023-08-02T23:36:01.650Z,28.53
2023-08-02T23:38:28.271Z,28.52
2023-08-02T23:40:54.871Z,28.51
2023-08-02T23:43:21.469Z,28.49
2023-08-02T23:45:48.115Z,28.50
2023-08-02T23:48:14.763Z,28.47
2023-08-02T23:50:41.372Z,28.47
2023-08-02T23:53:07.968Z,28.45
2023-08-02T23:55:34.543Z,28.44
2023-08-02T23:58:01.173Z,28.43
